createdAt,value
2018-08-20T00:01:45.904Z,11.27
2018-08-20T00:04:50.962Z,9.57
2018-08-20T00:07:48.410Z,9.97
2018-08-20T00:10:46.190Z,12.90
2018-08-20T00:13:43.876Z,13.53
2018-08-20T00:16:41.727Z,13.87
2018-08-20T00:19:39.814Z,9.47
2018-08-20T00:22:37.672Z,11.83
2018-08-20T00:25:38.704Z,12.57
2018-08-20T00:28:36.507Z,11.17
2018-08-20T00:31:34.447Z,10.70
2018-08-20T00:34:32.333Z,10.80
2018-08-20T00:37:29.708Z,13.13
2018-08-20T00:40:28.816Z,12.27
2018-08-20T00:43:26.791Z,10.43
2018-08-20T00:46:24.036Z,11.37
2018-08-20T00:49:23.123Z,13.83
2018-08-20T00:52:21.008Z,16.17
2018-08-20T00:55:19.924Z,12.87
2018-08-20T00:58:17.678Z,12.23
2018-08-20T01:01:15.663Z,16.87
2018-08-20T01:04:13.503Z,11.60
2018-08-20T01:07:11.387Z,12.30
2018-08-20T01:10:08.981Z,12.03
2018-08-20T01:13:06.805Z,12.60
2018-08-20T01:16:04.817Z,10.93
2018-08-20T01:19:02.628Z,11.20
2018-08-20T01:22:00.342Z,14.40
2018-08-20T01:24:58.356Z,15.43
2018-08-20T01:27:57.444Z,11.67
2018-08-20T01:30:55.295Z,13.27
2018-08-20T01:33:52.675Z,11.27
2018-08-20T01:36:50.016Z,12.90
2018-08-20T01:39:48.150Z,10.90
2018-08-20T01:42:46.187Z,11.83
2018-08-20T01:45:44.072Z,13.67
2018-08-20T01:48:42.013Z,16.20
2018-08-20T01:51:40.091Z,14.73
2018-08-20T01:54:38.171Z,13.47
2018-08-20T01:57:36.036Z,12.00
2018-08-20T02:00:33.958Z,15.33
2018-08-20T02:03:31.965Z,13.40
2018-08-20T02:06:29.954Z,16.50
2018-08-20T02:09:28.834Z,14.10
2018-08-20T02:12:26.829Z,15.70
2018-08-20T02:15:25.872Z,14.43
2018-08-20T02:18:24.523Z,14.13
2018-08-20T02:21:22.574Z,14.43
2018-08-20T02:24:20.466Z,17.07
2018-08-20T02:27:18.430Z,13.00
2018-08-20T02:30:16.407Z,12.60
2018-08-20T02:33:14.147Z,13.57
2018-08-20T02:36:12.180Z,14.73
2018-08-20T02:39:10.003Z,13.23
2018-08-20T02:42:07.177Z,13.80
2018-08-20T02:45:05.417Z,18.00
2018-08-20T02:48:03.408Z,12.90
2018-08-20T02:51:01.287Z,14.77
2018-08-20T02:53:59.475Z,17.30
2018-08-20T02:56:57.221Z,12.40
2018-08-20T02:59:54.411Z,13.77
2018-08-20T03:02:51.742Z,13.07
2018-08-20T03:05:49.297Z,12.77
2018-08-20T03:08:46.603Z,11.23
2018-08-20T03:11:43.707Z,13.43
2018-08-20T03:14:41.236Z,13.23
2018-08-20T03:17:39.298Z,14.43
2018-08-20T03:20:37.568Z,15.57
2018-08-20T03:23:35.604Z,11.50
2018-08-20T03:26:33.311Z,13.27
2018-08-20T03:29:31.080Z,12.50
2018-08-20T03:32:29.041Z,12.83
2018-08-20T03:35:26.616Z,12.27
2018-08-20T03:38:24.491Z,13.57
2018-08-20T03:41:22.135Z,15.30
2018-08-20T03:44:20.073Z,13.13
2018-08-20T03:47:18.102Z,19.93
2018-08-20T03:50:15.893Z,15.13
2018-08-20T03:53:13.643Z,15.17
2018-08-20T03:56:11.693Z,17.00
2018-08-20T03:59:09.076Z,11.10
2018-08-20T04:02:08.972Z,12.33
2018-08-20T04:05:06.920Z,13.67
2018-08-20T04:08:04.868Z,13.77
2018-08-20T04:11:02.401Z,12.43
2018-08-20T04:14:00.087Z,13.40
2018-08-20T04:16:58.355Z,14.23
2018-08-20T04:19:55.672Z,13.83
2018-08-20T04:22:53.491Z,11.63
2018-08-20T04:25:50.627Z,14.47
2018-08-20T04:28:48.726Z,10.80
2018-08-20T04:31:46.687Z,13.03
2018-08-20T04:34:44.528Z,10.63
2018-08-20T04:37:42.235Z,12.50
2018-08-20T04:40:40.071Z,14.97
2018-08-20T04:43:37.942Z,12.57
2018-08-20T04:46:35.305Z,14.60
2018-08-20T04:49:33.430Z,13.00
2018-08-20T04:52:31.270Z,13.67
2018-08-20T04:55:29.356Z,13.30
2018-08-20T04:58:27.272Z,14.17
2018-08-20T05:01:24.535Z,12.43
2018-08-20T05:04:22.667Z,13.77
2018-08-20T05:07:20.556Z,11.43
2018-08-20T05:10:17.869Z,13.57
2018-08-20T05:13:15.503Z,11.10
2018-08-20T05:16:13.509Z,14.73
2018-08-20T05:19:11.395Z,15.60
2018-08-20T05:22:08.668Z,12.77
2018-08-20T05:25:06.375Z,10.77
2018-08-20T05:28:04.343Z,14.97
2018-08-20T05:31:02.126Z,13.10
2018-08-20T05:33:59.324Z,10.67
2018-08-20T05:36:57.446Z,10.70
2018-08-20T05:39:55.353Z,12.07
2018-08-20T05:42:52.776Z,9.07
2018-08-20T05:45:51.716Z,11.47
2018-08-20T05:48:49.601Z,8.37
2018-08-20T05:51:47.367Z,11.30
2018-08-20T05:54:45.344Z,8.70
2018-08-20T05:57:43.423Z,11.20
2018-08-20T06:00:40.669Z,9.83
2018-08-20T06:03:37.923Z,14.17
2018-08-20T06:06:35.284Z,12.63
2018-08-20T06:09:32.623Z,12.00
2018-08-20T06:12:30.660Z,13.80
2018-08-20T06:15:29.844Z,15.70
2018-08-20T06:18:27.927Z,12.93
2018-08-20T06:21:25.721Z,11.13
2018-08-20T06:24:23.560Z,14.80
2018-08-20T06:27:21.563Z,15.30
2018-08-20T06:30:18.928Z,14.10
2018-08-20T06:33:16.070Z,12.90
2018-08-20T06:36:14.203Z,11.97
2018-08-20T06:39:12.388Z,13.70
2018-08-20T06:42:10.297Z,14.57
2018-08-20T06:45:07.424Z,15.77
2018-08-20T06:48:04.664Z,16.53
2018-08-20T06:51:01.804Z,18.87
2018-08-20T06:53:59.743Z,18.23
2018-08-20T06:56:57.100Z,18.93
2018-08-20T06:59:55.252Z,17.97
2018-08-20T07:02:53.144Z,21.50
2018-08-20T07:05:50.472Z,15.70
2018-08-20T07:08:48.475Z,18.67
2018-08-20T07:11:46.486Z,13.97
2018-08-20T07:14:44.086Z,18.17
2018-08-20T07:17:42.118Z,17.33
2018-08-20T07:20:39.508Z,17.10
2018-08-20T07:23:37.749Z,16.13
2018-08-20T07:26:35.480Z,17.70
2018-08-20T07:29:43.574Z,18.40
2018-08-20T07:32:41.022Z,21.03
2018-08-20T07:35:39.012Z,17.77
2018-08-20T07:38:36.008Z,19.13
2018-08-20T07:41:33.972Z,16.83
2018-08-20T07:44:31.748Z,20.27
2018-08-20T07:47:29.543Z,22.73
2018-08-20T07:50:27.412Z,18.50
2018-08-20T07:53:25.159Z,17.80
2018-08-20T07:56:23.202Z,17.73
2018-08-20T07:59:22.347Z,17.77
2018-08-20T08:02:20.280Z,20.23
2018-08-20T08:05:19.398Z,17.03
2018-08-20T08:08:17.461Z,18.47
2018-08-20T08:11:14.736Z,23.97
2018-08-20T08:14:13.789Z,22.33
2018-08-20T08:17:11.183Z,18.60
2018-08-20T08:20:09.143Z,16.17
2018-08-20T08:23:07.175Z,15.30
2018-08-20T08:26:05.127Z,17.47
2018-08-20T08:29:03.356Z,17.10
2018-08-20T08:32:00.356Z,15.90
2018-08-20T08:34:58.105Z,16.50
2018-08-20T08:37:57.236Z,15.03
2018-08-20T08:40:54.450Z,15.20
2018-08-20T08:43:52.249Z,16.70
2018-08-20T08:46:49.756Z,14.97
2018-08-20T08:49:46.983Z,18.23
2018-08-20T08:52:44.434Z,17.47
2018-08-20T08:55:42.399Z,16.93
2018-08-20T08:58:40.568Z,15.50
2018-08-20T09:01:38.545Z,15.13
2018-08-20T09:04:36.532Z,16.37
2018-08-20T09:07:34.463Z,14.60
2018-08-20T09:10:31.589Z,13.23
2018-08-20T09:13:28.671Z,11.47
2018-08-20T09:16:25.770Z,14.90
2018-08-20T09:19:23.001Z,14.77
2018-08-20T09:22:20.880Z,13.33
2018-08-20T09:25:19.704Z,15.67
2018-08-20T09:28:17.728Z,12.40
2018-08-20T09:31:14.731Z,13.60
2018-08-20T09:34:12.075Z,17.07
2018-08-20T09:37:09.785Z,17.77
2018-08-20T09:40:07.119Z,17.43
2018-08-20T09:43:04.990Z,13.00
2018-08-20T09:46:02.212Z,14.43
2018-08-20T09:48:59.295Z,14.90
2018-08-20T09:51:56.537Z,15.97
2018-08-20T09:54:54.692Z,17.47
2018-08-20T09:57:52.495Z,13.97
2018-08-20T10:00:50.371Z,13.20
2018-08-20T10:03:51.436Z,14.80
2018-08-20T10:06:49.686Z,19.23
2018-08-20T10:09:47.717Z,15.00
2018-08-20T10:12:45.419Z,15.07
2018-08-20T10:15:43.509Z,17.77
2018-08-20T10:18:41.280Z,17.63
2018-08-20T10:21:39.352Z,16.87
2018-08-20T10:24:37.558Z,18.33
2018-08-20T10:27:34.776Z,17.23
2018-08-20T10:30:33.771Z,17.00
2018-08-20T10:33:30.913Z,17.70
2018-08-20T10:36:28.944Z,18.63
2018-08-20T10:39:27.899Z,22.53
2018-08-20T10:42:25.792Z,26.97
2018-08-20T10:45:25.665Z,24.87
2018-08-20T10:48:23.964Z,23.17
2018-08-20T10:51:21.830Z,21.20
2018-08-20T10:54:18.945Z,20.63
2018-08-20T10:57:16.799Z,19.53
2018-08-20T11:00:14.763Z,19.80
2018-08-20T11:03:12.751Z,23.13
2018-08-20T11:06:10.077Z,22.03
2018-08-20T11:09:08.052Z,20.40
2018-08-20T11:12:07.020Z,21.77
2018-08-20T11:15:04.985Z,21.80
2018-08-20T11:18:02.924Z,21.23
2018-08-20T11:21:00.841Z,24.33
2018-08-20T11:23:58.943Z,20.20
2018-08-20T11:26:57.525Z,19.30
2018-08-20T11:29:55.544Z,21.60
2018-08-20T11:32:53.422Z,20.80
2018-08-20T11:35:51.433Z,17.03
2018-08-20T11:38:48.640Z,17.93
2018-08-20T11:41:46.755Z,18.00
2018-08-20T11:44:44.814Z,18.70
2018-08-20T11:47:42.894Z,18.77
2018-08-20T11:50:40.712Z,16.67
2018-08-20T11:53:38.593Z,16.63
2018-08-20T11:56:36.449Z,16.17
2018-08-20T11:59:33.927Z,13.30
2018-08-20T12:02:32.000Z,13.30
2018-08-20T12:05:29.331Z,12.43
2018-08-20T12:08:27.508Z,13.60
2018-08-20T12:11:25.572Z,9.80
2018-08-20T12:14:23.480Z,11.70
2018-08-20T12:17:21.438Z,11.17
2018-08-20T12:20:19.920Z,14.63
2018-08-20T12:23:18.108Z,12.80
2018-08-20T12:26:15.286Z,14.37
2018-08-20T12:29:13.221Z,12.77
2018-08-20T12:32:11.135Z,17.30
2018-08-20T12:35:08.479Z,13.20
2018-08-20T12:38:06.469Z,17.60
2018-08-20T12:41:04.433Z,17.43
2018-08-20T12:44:02.331Z,16.93
2018-08-20T12:47:00.311Z,17.83
2018-08-20T12:49:58.564Z,19.13
2018-08-20T12:52:56.217Z,15.63
2018-08-20T12:55:54.376Z,13.00
2018-08-20T12:58:56.614Z,13.17
2018-08-20T13:01:54.732Z,13.53
2018-08-20T13:04:52.731Z,13.70
2018-08-20T13:07:50.790Z,16.47
2018-08-20T13:10:48.843Z,13.03
2018-08-20T13:13:46.835Z,14.50
2018-08-20T13:16:44.610Z,11.83
2018-08-20T13:19:42.549Z,14.27
2018-08-20T13:22:40.575Z,13.13
2018-08-20T13:25:37.926Z,14.60
2018-08-20T13:28:35.714Z,12.70
2018-08-20T13:31:33.640Z,11.43
2018-08-20T13:34:31.474Z,11.87
2018-08-20T13:37:29.330Z,10.97
2018-08-20T13:40:26.665Z,13.40
2018-08-20T13:43:24.476Z,10.60
2018-08-20T13:46:22.477Z,11.83
2018-08-20T13:49:20.276Z,29.83
2018-08-20T13:52:18.380Z,5.90
2018-08-20T13:55:16.346Z,6.90
2018-08-20T13:58:13.827Z,11.43
2018-08-20T14:01:11.281Z,7.60
2018-08-20T14:04:08.263Z,5.70
2018-08-20T14:07:05.980Z,6.10
2018-08-20T14:10:03.150Z,8.93
2018-08-20T14:13:01.093Z,7.07
2018-08-20T14:15:58.417Z,9.10
2018-08-20T14:18:56.419Z,10.90
2018-08-20T14:21:54.020Z,12.20
2018-08-20T14:24:51.873Z,7.20
2018-08-20T14:27:49.662Z,9.37
2018-08-20T14:30:47.449Z,9.03
2018-08-20T14:33:45.396Z,6.83
2018-08-20T14:36:42.822Z,6.67
2018-08-20T14:39:40.668Z,7.27
2018-08-20T14:42:38.697Z,9.03
2018-08-20T14:45:42.917Z,6.53
2018-08-20T14:48:41.134Z,8.13
2018-08-20T14:51:39.023Z,7.40
2018-08-20T14:54:36.969Z,9.50
2018-08-20T14:57:34.501Z,9.43
2018-08-20T15:00:33.721Z,10.27
2018-08-20T15:03:31.665Z,8.20
2018-08-20T15:06:29.699Z,7.03
2018-08-20T15:09:28.831Z,7.27
2018-08-20T15:12:26.658Z,6.77
2018-08-20T15:15:24.745Z,12.47
2018-08-20T15:18:21.772Z,9.27
2018-08-20T15:21:19.800Z,10.80
2018-08-20T15:24:16.986Z,7.60
2018-08-20T15:27:14.351Z,7.93
2018-08-20T15:30:11.478Z,6.43
2018-08-20T15:33:08.759Z,8.63
2018-08-20T15:36:06.614Z,8.40
2018-08-20T15:39:04.608Z,6.73
2018-08-20T15:42:02.575Z,6.87
2018-08-20T15:45:00.702Z,6.43
2018-08-20T15:47:58.785Z,6.60
2018-08-20T15:50:56.967Z,6.73
2018-08-20T15:53:55.813Z,7.43
2018-08-20T15:56:53.756Z,6.10
2018-08-20T15:59:50.816Z,5.20
2018-08-20T16:02:47.918Z,6.63
2018-08-20T16:05:45.998Z,16.60
2018-08-20T16:08:43.871Z,4.37
2018-08-20T16:11:50.016Z,4.17
2018-08-20T16:14:47.244Z,7.03
2018-08-20T16:17:45.530Z,4.30
2018-08-20T16:20:43.252Z,5.10
2018-08-20T16:23:42.093Z,3.70
2018-08-20T16:26:39.996Z,4.17
2018-08-20T16:29:38.115Z,4.43
2018-08-20T16:32:36.005Z,5.37
2018-08-20T16:35:34.329Z,4.10
2018-08-20T16:38:32.258Z,5.13
2018-08-20T16:41:30.289Z,3.73
2018-08-20T16:44:28.173Z,3.30
2018-08-20T16:47:26.105Z,4.23
2018-08-20T16:50:25.003Z,3.70
2018-08-20T16:53:22.942Z,2.57
2018-08-20T16:56:21.040Z,3.20
2018-08-20T16:59:19.035Z,2.80
2018-08-20T17:02:18.035Z,5.13
2018-08-20T17:05:16.049Z,2.47
2018-08-20T17:08:13.963Z,1.70
2018-08-20T17:11:11.441Z,2.40
2018-08-20T17:14:09.541Z,2.97
2018-08-20T17:17:07.711Z,2.97
2018-08-20T17:20:05.775Z,2.87
2018-08-20T17:23:03.857Z,2.63
2018-08-20T17:26:01.561Z,1.70
2018-08-20T17:28:59.563Z,1.53
2018-08-20T17:31:57.372Z,2.07
2018-08-20T17:34:55.277Z,1.93
2018-08-20T17:37:53.079Z,5.13
2018-08-20T17:40:55.361Z,2.17
2018-08-20T17:43:53.169Z,1.00
2018-08-20T17:46:51.312Z,2.17
2018-08-20T17:49:49.348Z,1.00
2018-08-20T17:52:53.469Z,2.07
2018-08-20T17:55:51.174Z,2.50
2018-08-20T17:58:48.957Z,2.87
2018-08-20T18:01:48.894Z,2.10
2018-08-20T18:04:47.091Z,1.80
2018-08-20T18:07:44.908Z,21.10
2018-08-20T18:10:42.069Z,3.73
2018-08-20T18:13:54.526Z,1.70
2018-08-20T18:16:52.567Z,1.67
2018-08-20T18:19:50.220Z,2.60
2018-08-20T18:22:48.155Z,2.33
2018-08-20T18:25:49.281Z,1.30
2018-08-20T18:29:00.531Z,3.43
2018-08-20T18:31:57.591Z,1.30
2018-08-20T18:34:55.479Z,2.27
2018-08-20T18:37:58.291Z,1.07
2018-08-20T18:40:56.216Z,2.90
2018-08-20T18:43:54.124Z,3.07
2018-08-20T18:46:51.926Z,2.50
2018-08-20T18:50:02.955Z,1.77
2018-08-20T18:53:00.913Z,2.07
2018-08-20T18:56:05.140Z,1.77
2018-08-20T18:59:03.309Z,1.23
2018-08-20T19:02:01.272Z,1.67
2018-08-20T19:04:59.071Z,2.33
2018-08-20T19:07:57.139Z,1.33
2018-08-20T19:10:55.330Z,1.63
2018-08-20T19:13:52.580Z,1.20
2018-08-20T19:16:51.599Z,1.20
2018-08-20T19:19:54.657Z,1.07
2018-08-20T19:22:52.693Z,2.97
2018-08-20T19:25:50.848Z,3.27
2018-08-20T19:28:49.038Z,1.40
2018-08-20T19:31:47.054Z,3.27
2018-08-20T19:34:44.777Z,3.53
2018-08-20T19:37:42.104Z,3.57
2018-08-20T19:40:40.157Z,1.23
2018-08-20T19:44:10.644Z,1.03
2018-08-20T19:47:09.623Z,1.57
2018-08-20T19:50:07.439Z,1.87
2018-08-20T19:53:05.320Z,1.90
2018-08-20T19:56:03.038Z,1.30
2018-08-20T19:59:00.967Z,1.27
2018-08-20T20:01:58.974Z,1.83
2018-08-20T20:04:56.129Z,1.10
2018-08-20T20:07:59.139Z,1.57
2018-08-20T20:10:57.087Z,1.37
2018-08-20T20:13:55.994Z,2.43
2018-08-20T20:17:00.256Z,2.50
2018-08-20T20:19:58.305Z,2.90
2018-08-20T20:22:56.237Z,3.70
2018-08-20T20:25:54.275Z,1.63
2018-08-20T20:28:51.977Z,2.87
2018-08-20T20:31:49.858Z,2.83
2018-08-20T20:34:47.973Z,1.87
2018-08-20T20:37:46.111Z,1.53
2018-08-20T20:40:44.098Z,2.13
2018-08-20T20:43:45.144Z,3.07
2018-08-20T20:46:43.131Z,3.93
2018-08-20T20:49:40.584Z,1.67
2018-08-20T20:52:38.835Z,1.80
2018-08-20T20:55:36.527Z,1.63
2018-08-20T20:58:40.680Z,1.40
2018-08-20T21:01:38.773Z,4.17
2018-08-20T21:04:36.954Z,1.97
2018-08-20T21:07:39.893Z,2.37
2018-08-20T21:10:51.163Z,3.30
2018-08-20T21:13:49.990Z,2.77
2018-08-20T21:16:48.121Z,3.23
2018-08-20T21:19:48.162Z,1.70
2018-08-20T21:22:46.108Z,1.30
2018-08-20T21:25:44.231Z,1.37
2018-08-20T21:28:46.279Z,1.40
2018-08-20T21:31:59.478Z,2.47
2018-08-20T21:34:57.109Z,1.40
2018-08-20T21:37:54.367Z,1.10
2018-08-20T21:40:52.306Z,1.27
2018-08-20T21:43:53.474Z,1.57
2018-08-20T21:46:51.436Z,4.87
2018-08-20T21:49:49.251Z,2.00
2018-08-20T21:52:46.580Z,1.63
2018-08-20T21:55:44.528Z,2.43
2018-08-20T21:58:42.635Z,1.70
2018-08-20T22:01:40.603Z,1.57
2018-08-20T22:04:37.890Z,2.33
2018-08-20T22:07:35.007Z,2.90
2018-08-20T22:10:34.213Z,2.90
2018-08-20T22:13:32.014Z,2.40
2018-08-20T22:16:36.198Z,1.70
2018-08-20T22:19:34.181Z,1.57
2018-08-20T22:22:35.287Z,1.97
2018-08-20T22:25:34.456Z,1.60
2018-08-20T22:28:32.688Z,1.57
2018-08-20T22:31:30.557Z,1.70
2018-08-20T22:34:28.507Z,1.93
2018-08-20T22:37:26.436Z,2.40
2018-08-20T22:40:24.303Z,4.97
2018-08-20T22:43:22.259Z,1.87
2018-08-20T22:46:19.734Z,7.33
2018-08-20T22:49:17.620Z,1.47
2018-08-20T22:52:15.588Z,1.20
2018-08-20T22:55:13.359Z,3.20
2018-08-20T22:58:21.437Z,1.80
2018-08-20T23:01:18.628Z,2.93
2018-08-20T23:04:15.788Z,1.60
2018-08-20T23:07:17.974Z,2.37
2018-08-20T23:10:15.873Z,1.50
2018-08-20T23:13:13.845Z,2.73
2018-08-20T23:16:11.860Z,1.10
2018-08-20T23:19:10.995Z,1.30
2018-08-20T23:22:08.947Z,1.20
2018-08-20T23:25:07.045Z,1.63
2018-08-20T23:28:04.228Z,1.53
2018-08-20T23:31:09.229Z,2.80
2018-08-20T23:34:07.200Z,5.43
2018-08-20T23:37:05.320Z,1.80
2018-08-20T23:40:03.042Z,1.47
2018-08-20T23:43:00.758Z,1.20
2018-08-20T23:45:58.606Z,1.33
2018-08-20T23:48:56.529Z,2.60
2018-08-20T23:51:54.476Z,1.27
2018-08-20T23:54:52.186Z,1.77
2018-08-20T23:57:49.323Z,2.43
